createdAt,value
2023-08-23T00:02:26.525Z,98.72
2023-08-23T00:04:53.062Z,97.87
2023-08-23T00:07:19.473Z,97.92
2023-08-23T00:09:45.827Z,98.94
2023-08-23T00:12:12.371Z,99.12
2023-08-23T00:14:38.852Z,100.00
2023-08-23T00:17:05.307Z,99.46
2023-08-23T00:19:31.770Z,99.99
2023-08-23T00:21:58.154Z,100.00
2023-08-23T00:24:24.939Z,99.45
2023-08-23T00:26:51.337Z,99.23
2023-08-23T00:29:17.722Z,99.46
2023-08-23T00:31:44.114Z,99.17
2023-08-23T00:34:10.473Z,99.07
2023-08-23T00:36:37.094Z,99.08
2023-08-23T00:39:03.513Z,99.67
2023-08-23T00:41:29.899Z,98.87
2023-08-23T00:43:56.453Z,99.40
2023-08-23T00:46:22.994Z,100.00
2023-08-23T00:48:50.594Z,100.00
2023-08-23T00:51:18.547Z,100.00
2023-08-23T00:53:46.037Z,100.00
2023-08-23T00:56:13.004Z,100.00
2023-08-23T00:58:39.664Z,100.00
2023-08-23T01:01:06.150Z,100.00
2023-08-23T01:03:33.477Z,100.00
2023-08-23T01:06:37.385Z,100.00
2023-08-23T01:09:15.389Z,100.00
2023-08-23T01:11:50.676Z,100.00
2023-08-23T01:14:23.018Z,100.00
2023-08-23T01:16:50.488Z,100.00
2023-08-23T01:19:41.963Z,100.00
2023-08-23T01:22:11.765Z,100.00
2023-08-23T01:24:38.574Z,100.00
2023-08-23T01:27:05.364Z,100.00
2023-08-23T01:29:31.784Z,100.00
2023-08-23T01:32:07.249Z,100.00
2023-08-23T01:34:38.201Z,100.00
2023-08-23T01:37:06.905Z,100.00
2023-08-23T01:39:34.240Z,100.00
2023-08-23T01:42:01.733Z,100.00
2023-08-23T01:44:28.130Z,100.00
2023-08-23T01:46:54.616Z,100.00
2023-08-23T01:49:21.033Z,100.00
2023-08-23T01:51:47.369Z,100.00
2023-08-23T01:54:13.786Z,100.00
2023-08-23T01:56:40.127Z,100.00
2023-08-23T01:59:06.484Z,100.00
2023-08-23T02:01:33.562Z,100.00
2023-08-23T02:03:59.977Z,100.00
2023-08-23T02:06:26.452Z,100.00
2023-08-23T02:08:52.907Z,100.00
2023-08-23T02:11:19.390Z,100.00
2023-08-23T02:13:45.746Z,100.00
2023-08-23T02:16:12.197Z,100.00
2023-08-23T02:18:38.790Z,100.00
2023-08-23T02:21:05.220Z,100.00
2023-08-23T02:23:31.646Z,100.00
2023-08-23T02:25:58.102Z,100.00
2023-08-23T02:28:24.490Z,100.00
2023-08-23T02:30:50.944Z,100.00
2023-08-23T02:33:19.145Z,100.00
2023-08-23T02:35:47.798Z,100.00
2023-08-23T02:38:14.494Z,100.00
2023-08-23T02:40:43.233Z,100.00
2023-08-23T02:43:10.034Z,100.00
2023-08-23T02:45:40.403Z,100.00
2023-08-23T02:48:09.366Z,100.00
2023-08-23T02:50:35.847Z,100.00
2023-08-23T02:53:02.775Z,100.00
2023-08-23T02:55:29.219Z,100.00
2023-08-23T02:57:55.618Z,100.00
2023-08-23T03:00:22.171Z,100.00
2023-08-23T03:02:48.695Z,100.00
2023-08-23T03:05:15.126Z,100.00
2023-08-23T03:07:41.516Z,100.00
2023-08-23T03:10:08.399Z,100.00
2023-08-23T03:12:34.730Z,100.00
2023-08-23T03:15:01.153Z,100.00
2023-08-23T03:17:27.672Z,100.00
2023-08-23T03:19:54.407Z,100.00
2023-08-23T03:22:20.778Z,100.00
2023-08-23T03:24:47.187Z,100.00
2023-08-23T03:27:13.652Z,100.00
2023-08-23T03:29:40.078Z,100.00
2023-08-23T03:32:06.492Z,100.00
2023-08-23T03:34:32.927Z,100.00
2023-08-23T03:37:01.129Z,100.00
2023-08-23T03:39:27.489Z,100.00
2023-08-23T03:41:53.930Z,100.00
2023-08-23T03:44:20.348Z,100.00
2023-08-23T03:46:46.752Z,100.00
2023-08-23T03:49:13.196Z,100.00
2023-08-23T03:51:39.620Z,100.00
2023-08-23T03:54:06.012Z,100.00
2023-08-23T03:56:32.426Z,100.00
2023-08-23T03:58:59.725Z,100.00
2023-08-23T04:01:26.296Z,100.00
2023-08-23T04:03:52.793Z,100.00
2023-08-23T04:06:19.273Z,100.00
2023-08-23T04:08:45.686Z,100.00
2023-08-23T04:11:12.065Z,100.00
2023-08-23T04:13:38.751Z,100.00
2023-08-23T04:16:05.218Z,100.00
2023-08-23T04:18:31.584Z,100.00
2023-08-23T04:21:01.854Z,100.00
2023-08-23T04:23:28.901Z,100.00
2023-08-23T04:25:55.369Z,100.00
2023-08-23T04:28:23.372Z,100.00
2023-08-23T04:30:49.777Z,100.00
2023-08-23T04:33:16.224Z,100.00
2023-08-23T04:35:42.636Z,100.00
2023-08-23T04:38:13.002Z,100.00
2023-08-23T04:40:39.407Z,100.00
2023-08-23T04:43:05.820Z,100.00
2023-08-23T04:45:32.273Z,100.00
2023-08-23T04:47:58.768Z,100.00
2023-08-23T04:50:25.170Z,100.00
2023-08-23T04:52:51.590Z,100.00
2023-08-23T04:55:18.038Z,100.00
2023-08-23T04:57:44.484Z,100.00
2023-08-23T05:00:11.508Z,100.00
2023-08-23T05:02:37.924Z,100.00
2023-08-23T05:05:04.803Z,100.00
2023-08-23T05:07:31.184Z,100.00
2023-08-23T05:09:57.544Z,100.00
2023-08-23T05:12:23.943Z,100.00
2023-08-23T05:14:50.297Z,100.00
2023-08-23T05:17:16.743Z,100.00
2023-08-23T05:19:43.093Z,100.00
2023-08-23T05:22:11.307Z,100.00
2023-08-23T05:24:37.687Z,100.00
2023-08-23T05:27:04.216Z,100.00
2023-08-23T05:29:30.656Z,100.00
2023-08-23T05:31:57.059Z,100.00
2023-08-23T05:34:23.506Z,100.00
2023-08-23T05:36:49.969Z,100.00
2023-08-23T05:39:16.384Z,100.00
2023-08-23T05:41:42.726Z,100.00
2023-08-23T05:44:09.056Z,100.00
2023-08-23T05:46:35.447Z,100.00
2023-08-23T05:49:01.891Z,100.00
2023-08-23T05:51:28.236Z,100.00
2023-08-23T05:53:55.022Z,100.00
2023-08-23T05:56:21.415Z,100.00
2023-08-23T05:58:47.762Z,100.00
2023-08-23T06:01:14.217Z,100.00
2023-08-23T06:03:40.794Z,100.00
2023-08-23T06:06:07.196Z,100.00
2023-08-23T06:08:33.636Z,100.00
2023-08-23T06:11:00.052Z,100.00
2023-08-23T06:13:26.500Z,100.00
2023-08-23T06:15:52.884Z,100.00
2023-08-23T06:18:19.342Z,100.00
2023-08-23T06:20:46.610Z,100.00
2023-08-23T06:23:13.292Z,100.00
2023-08-23T06:25:40.001Z,100.00
2023-08-23T06:28:06.670Z,100.00
2023-08-23T06:30:33.078Z,100.00
2023-08-23T06:32:59.562Z,100.00
2023-08-23T06:35:27.265Z,100.00
2023-08-23T06:37:53.652Z,100.00
2023-08-23T06:40:20.265Z,100.00
2023-08-23T06:42:46.725Z,100.00
2023-08-23T06:45:13.134Z,100.00
2023-08-23T06:47:39.772Z,99.39
2023-08-23T06:50:11.887Z,100.00
2023-08-23T06:52:39.459Z,100.00
2023-08-23T06:55:07.169Z,100.00
2023-08-23T06:57:33.574Z,99.75
2023-08-23T07:00:00.389Z,100.00
2023-08-23T07:02:27.310Z,96.78
2023-08-23T07:07:46.009Z,96.70
2023-08-23T07:10:26.746Z,95.67
2023-08-23T07:12:54.713Z,97.73
2023-08-23T07:15:21.725Z,93.36
2023-08-23T07:17:50.105Z,93.97
2023-08-23T07:20:17.285Z,94.88
2023-08-23T07:22:43.683Z,93.07
2023-08-23T07:25:10.051Z,93.00
2023-08-23T07:27:37.887Z,93.11
2023-08-23T07:30:06.678Z,93.53
2023-08-23T07:32:33.580Z,93.87
2023-08-23T07:35:03.175Z,92.11
2023-08-23T07:37:29.917Z,93.57
2023-08-23T07:39:56.918Z,92.55
2023-08-23T07:42:25.156Z,88.22
2023-08-23T07:44:52.728Z,87.54
2023-08-23T07:47:19.228Z,83.85
2023-08-23T07:49:45.927Z,83.66
2023-08-23T07:52:12.350Z,83.26
2023-08-23T07:54:38.702Z,85.04
2023-08-23T07:57:05.205Z,83.33
2023-08-23T07:59:31.669Z,83.67
2023-08-23T08:01:58.173Z,84.70
2023-08-23T08:04:24.590Z,83.62
2023-08-23T08:06:50.916Z,83.28
2023-08-23T08:09:17.294Z,82.34
2023-08-23T08:11:43.721Z,80.74
2023-08-23T08:14:10.166Z,81.70
2023-08-23T08:16:36.625Z,78.26
2023-08-23T08:19:03.118Z,79.77
2023-08-23T08:21:29.458Z,79.04
2023-08-23T08:23:56.597Z,77.92
2023-08-23T08:26:23.596Z,77.71
2023-08-23T08:28:50.092Z,78.14
2023-08-23T08:31:16.549Z,76.61
2023-08-23T08:33:43.403Z,76.58
2023-08-23T08:36:11.833Z,75.77
2023-08-23T08:38:38.627Z,76.57
2023-08-23T08:41:05.489Z,76.00
2023-08-23T08:43:32.966Z,75.40
2023-08-23T08:45:59.449Z,77.67
2023-08-23T08:48:25.876Z,76.09
2023-08-23T08:50:54.364Z,76.31
2023-08-23T08:53:29.566Z,74.17
2023-08-23T08:55:56.224Z,73.58
2023-08-23T08:58:24.842Z,76.23
2023-08-23T09:00:54.293Z,72.25
2023-08-23T09:03:21.251Z,71.37
2023-08-23T09:05:49.473Z,70.49
2023-08-23T09:08:16.429Z,70.55
2023-08-23T09:10:42.864Z,68.03
2023-08-23T09:13:09.311Z,70.64
2023-08-23T09:15:35.948Z,70.95
2023-08-23T09:18:03.469Z,69.33
2023-08-23T09:20:29.970Z,69.24
2023-08-23T09:22:56.711Z,67.90
2023-08-23T09:25:24.677Z,68.42
2023-08-23T09:27:54.056Z,69.43
2023-08-23T09:30:21.426Z,65.74
2023-08-23T09:32:48.074Z,63.78
2023-08-23T09:35:18.641Z,65.25
2023-08-23T09:37:49.979Z,64.56
2023-08-23T09:40:20.854Z,65.00
2023-08-23T09:42:47.779Z,64.81
2023-08-23T09:45:22.595Z,64.24
2023-08-23T09:47:56.880Z,64.81
2023-08-23T09:50:25.318Z,62.67
2023-08-23T09:52:57.696Z,62.13
2023-08-23T09:55:26.680Z,62.79
2023-08-23T09:57:56.486Z,61.53
2023-08-23T10:00:23.937Z,62.33
2023-08-23T10:02:50.620Z,60.28
2023-08-23T10:05:19.294Z,58.70
2023-08-23T10:07:46.411Z,56.12
2023-08-23T10:10:13.476Z,54.30
2023-08-23T10:12:46.511Z,53.00
2023-08-23T10:15:16.766Z,55.81
2023-08-23T10:17:45.797Z,50.94
2023-08-23T10:20:12.826Z,52.78
2023-08-23T10:22:41.474Z,52.30
2023-08-23T10:25:20.878Z,51.14
2023-08-23T10:27:49.607Z,51.11
2023-08-23T10:30:40.027Z,53.64
2023-08-23T10:33:10.879Z,53.48
2023-08-23T10:35:38.667Z,50.74
2023-08-23T10:38:10.069Z,53.03
2023-08-23T10:40:43.308Z,53.34
2023-08-23T10:43:11.246Z,55.26
2023-08-23T10:45:50.140Z,52.84
2023-08-23T10:48:19.073Z,53.47
2023-08-23T10:50:47.276Z,51.96
2023-08-23T10:53:16.226Z,52.44
2023-08-23T10:55:42.889Z,53.07
2023-08-23T10:58:09.352Z,51.16
2023-08-23T11:00:36.880Z,50.63
2023-08-23T11:03:05.621Z,50.48
2023-08-23T11:05:32.567Z,49.42
2023-08-23T11:07:59.178Z,51.29
2023-08-23T11:10:26.670Z,48.52
2023-08-23T11:12:53.212Z,48.49
2023-08-23T11:15:21.267Z,50.21
2023-08-23T11:17:48.400Z,50.16
2023-08-23T11:20:16.465Z,51.80
2023-08-23T11:22:43.888Z,49.29
2023-08-23T11:25:10.271Z,47.59
2023-08-23T11:27:36.690Z,47.47
2023-08-23T11:30:03.804Z,48.40
2023-08-23T11:32:31.068Z,49.00
2023-08-23T11:34:58.989Z,45.56
2023-08-23T11:37:25.646Z,43.40
2023-08-23T11:39:59.505Z,44.27
2023-08-23T11:42:26.777Z,45.24
2023-08-23T11:44:57.049Z,46.63
2023-08-23T11:47:27.472Z,46.48
2023-08-23T11:49:54.541Z,45.80
2023-08-23T11:52:21.104Z,47.62
2023-08-23T11:54:47.724Z,47.50
2023-08-23T11:57:20.931Z,49.03
2023-08-23T11:59:48.189Z,43.30
2023-08-23T12:02:14.906Z,40.93
2023-08-23T12:04:45.512Z,42.62
2023-08-23T12:07:14.025Z,43.05
2023-08-23T12:09:40.987Z,42.34
2023-08-23T12:12:07.874Z,43.67
2023-08-23T12:14:34.852Z,40.51
2023-08-23T12:17:01.524Z,39.43
2023-08-23T12:19:32.053Z,39.97
2023-08-23T12:21:58.976Z,42.91
2023-08-23T12:24:25.632Z,41.66
2023-08-23T12:26:52.340Z,41.48
2023-08-23T12:29:18.999Z,41.26
2023-08-23T12:31:45.546Z,39.83
2023-08-23T12:34:12.186Z,38.98
2023-08-23T12:36:38.891Z,40.05
2023-08-23T12:39:06.372Z,41.36
2023-08-23T12:41:33.194Z,40.09
2023-08-23T12:44:01.573Z,40.96
2023-08-23T12:46:30.861Z,41.74
2023-08-23T12:48:57.540Z,42.95
2023-08-23T12:51:25.901Z,40.77
2023-08-23T12:53:52.335Z,41.05
2023-08-23T12:56:18.912Z,43.03
2023-08-23T12:58:47.660Z,43.54
2023-08-23T13:01:14.145Z,40.43
2023-08-23T13:03:40.650Z,38.70
2023-08-23T13:06:07.147Z,38.24
2023-08-23T13:08:33.629Z,39.69
2023-08-23T13:11:00.288Z,41.74
2023-08-23T13:13:28.244Z,40.04
2023-08-23T13:15:54.640Z,41.72
2023-08-23T13:18:21.148Z,40.87
2023-08-23T13:20:47.563Z,40.99
2023-08-23T13:23:14.202Z,39.66
2023-08-23T13:25:40.557Z,42.94
2023-08-23T13:28:07.101Z,42.00
2023-08-23T13:30:33.533Z,42.13
2023-08-23T13:32:59.949Z,41.07
2023-08-23T13:35:26.339Z,39.07
2023-08-23T13:37:52.821Z,39.34
2023-08-23T13:40:19.434Z,41.47
2023-08-23T13:42:45.884Z,40.33
2023-08-23T13:45:12.314Z,40.05
2023-08-23T13:47:39.242Z,41.04
2023-08-23T13:50:07.078Z,41.33
2023-08-23T13:52:33.563Z,40.67
2023-08-23T13:55:00.015Z,40.07
2023-08-23T13:57:26.537Z,43.41
2023-08-23T13:59:52.910Z,39.93
2023-08-23T14:02:19.352Z,42.20
2023-08-23T14:04:45.797Z,42.03
2023-08-23T14:07:12.304Z,40.63
2023-08-23T14:09:38.693Z,40.41
2023-08-23T14:12:06.633Z,40.55
2023-08-23T14:14:33.082Z,42.17
2023-08-23T14:16:59.632Z,41.37
2023-08-23T14:19:29.790Z,41.17
2023-08-23T14:21:56.213Z,40.50
2023-08-23T14:24:22.657Z,40.86
2023-08-23T14:26:49.244Z,42.44
2023-08-23T14:29:16.181Z,43.84
2023-08-23T14:31:42.811Z,42.35
2023-08-23T14:34:09.275Z,39.02
2023-08-23T14:36:35.624Z,39.04
2023-08-23T14:39:02.458Z,37.79
2023-08-23T14:41:28.809Z,38.09
2023-08-23T14:43:55.731Z,37.17
2023-08-23T14:46:22.182Z,41.62
2023-08-23T14:48:48.638Z,40.48
2023-08-23T14:51:15.102Z,41.48
2023-08-23T14:53:43.304Z,40.87
2023-08-23T14:56:09.768Z,37.61
2023-08-23T14:58:36.198Z,37.44
2023-08-23T15:01:02.620Z,37.40
2023-08-23T15:03:29.105Z,40.16
2023-08-23T15:05:56.295Z,38.03
2023-08-23T15:08:22.785Z,39.13
2023-08-23T15:10:49.271Z,40.68
2023-08-23T15:13:15.686Z,41.42
2023-08-23T15:15:42.197Z,37.79
2023-08-23T15:18:08.789Z,35.19
2023-08-23T15:20:35.352Z,36.24
2023-08-23T15:23:01.906Z,35.94
2023-08-23T15:25:28.322Z,33.85
2023-08-23T15:27:55.038Z,35.47
2023-08-23T15:30:21.593Z,37.23
2023-08-23T15:32:48.113Z,36.78
2023-08-23T15:35:14.558Z,34.63
2023-08-23T15:37:41.011Z,37.00
2023-08-23T15:40:10.372Z,34.78
2023-08-23T15:42:37.481Z,34.01
2023-08-23T15:45:05.324Z,34.65
2023-08-23T15:47:31.716Z,36.39
2023-08-23T15:49:58.145Z,34.25
2023-08-23T15:52:24.552Z,35.24
2023-08-23T15:54:51.802Z,33.85
2023-08-23T15:57:19.965Z,36.88
2023-08-23T15:59:46.924Z,35.12
2023-08-23T16:02:13.300Z,36.10
2023-08-23T16:04:41.485Z,35.63
2023-08-23T16:07:09.200Z,35.09
2023-08-23T16:09:35.649Z,34.12
2023-08-23T16:12:02.092Z,31.97
2023-08-23T16:14:28.519Z,31.31
2023-08-23T16:16:54.953Z,32.98
2023-08-23T16:19:21.406Z,32.68
2023-08-23T16:21:49.348Z,32.96
2023-08-23T16:24:15.742Z,33.92
2023-08-23T16:26:42.198Z,31.90
2023-08-23T16:29:08.598Z,34.80
2023-08-23T16:31:35.067Z,33.46
2023-08-23T16:34:01.513Z,34.05
2023-08-23T16:36:27.963Z,35.42
2023-08-23T16:38:54.421Z,36.18
2023-08-23T16:41:20.950Z,36.94
2023-08-23T16:43:47.408Z,35.32
2023-08-23T16:46:14.338Z,38.06
2023-08-23T16:48:40.771Z,37.48
2023-08-23T16:51:09.177Z,37.49
2023-08-23T16:53:35.546Z,36.60
2023-08-23T16:56:02.042Z,35.61
2023-08-23T16:58:31.234Z,33.58
2023-08-23T17:00:58.227Z,35.73
2023-08-23T17:03:24.726Z,35.62
2023-08-23T17:05:51.336Z,34.63
2023-08-23T17:08:17.750Z,33.12
2023-08-23T17:10:45.251Z,33.93
2023-08-23T17:13:11.713Z,34.62
2023-08-23T17:15:38.137Z,34.33
2023-08-23T17:18:05.755Z,35.80
2023-08-23T17:20:32.321Z,35.47
2023-08-23T17:22:59.609Z,37.54
2023-08-23T17:25:26.234Z,37.82
2023-08-23T17:27:52.694Z,38.22
2023-08-23T17:30:19.100Z,37.86
2023-08-23T17:32:45.493Z,37.47
2023-08-23T17:35:13.050Z,37.50
2023-08-23T17:37:39.467Z,38.90
2023-08-23T17:40:06.495Z,39.85
2023-08-23T17:42:32.878Z,40.10
2023-08-23T17:45:00.310Z,39.41
2023-08-23T17:47:27.219Z,39.28
2023-08-23T17:49:53.703Z,38.44
2023-08-23T17:52:20.083Z,37.86
2023-08-23T17:54:46.443Z,37.89
2023-08-23T17:57:12.898Z,38.49
2023-08-23T17:59:39.234Z,40.50
2023-08-23T18:02:05.670Z,40.06
2023-08-23T18:04:33.009Z,42.04
2023-08-23T18:06:59.405Z,42.46
2023-08-23T18:09:25.775Z,39.02
2023-08-23T18:11:52.191Z,37.35
2023-08-23T18:14:18.598Z,36.48
2023-08-23T18:16:45.046Z,34.70
2023-08-23T18:19:11.505Z,34.82
2023-08-23T18:21:37.927Z,35.08
2023-08-23T18:24:04.317Z,36.31
2023-08-23T18:26:32.276Z,40.75
2023-08-23T18:28:58.695Z,40.19
2023-08-23T18:31:25.671Z,41.38
2023-08-23T18:33:52.122Z,39.96
2023-08-23T18:36:18.825Z,39.74
2023-08-23T18:38:45.357Z,38.57
2023-08-23T18:41:11.780Z,39.52
2023-08-23T18:43:38.226Z,39.67
2023-08-23T18:46:04.701Z,39.54
2023-08-23T18:48:31.102Z,40.75
2023-08-23T18:51:02.884Z,40.16
2023-08-23T18:53:30.048Z,43.15
2023-08-23T18:55:56.493Z,42.08
2023-08-23T18:58:22.961Z,40.55
2023-08-23T19:00:49.487Z,40.64
2023-08-23T19:03:18.127Z,42.15
2023-08-23T19:05:45.161Z,46.34
2023-08-23T19:08:11.997Z,47.55
2023-08-23T19:10:39.870Z,43.95
2023-08-23T19:13:06.399Z,45.58
2023-08-23T19:15:34.195Z,46.08
2023-08-23T19:18:00.758Z,44.18
2023-08-23T19:20:27.282Z,47.00
2023-08-23T19:22:53.641Z,48.27
2023-08-23T19:25:19.964Z,48.76
2023-08-23T19:27:46.425Z,49.23
2023-08-23T19:30:12.953Z,51.03
2023-08-23T19:32:39.519Z,51.38
2023-08-23T19:35:06.076Z,51.35
2023-08-23T19:37:32.564Z,51.32
2023-08-23T19:39:58.957Z,50.01
2023-08-23T19:42:25.365Z,50.63
2023-08-23T19:44:51.776Z,53.34
2023-08-23T19:47:18.251Z,54.05
2023-08-23T19:49:44.732Z,53.99
2023-08-23T19:52:11.191Z,56.03
2023-08-23T19:54:39.290Z,57.63
2023-08-23T19:57:06.685Z,57.19
2023-08-23T19:59:33.210Z,57.52
2023-08-23T20:01:59.574Z,57.26
2023-08-23T20:04:25.977Z,61.22
2023-08-23T20:06:52.375Z,59.55
2023-08-23T20:09:18.914Z,61.24
2023-08-23T20:11:46.146Z,62.17
2023-08-23T20:14:12.708Z,60.25
2023-08-23T20:16:39.065Z,60.92
2023-08-23T20:19:05.471Z,61.78
2023-08-23T20:21:31.896Z,61.30
2023-08-23T20:23:58.310Z,61.20
2023-08-23T20:26:24.742Z,62.64
2023-08-23T20:28:51.427Z,62.74
2023-08-23T20:31:17.912Z,63.78
2023-08-23T20:33:44.536Z,62.11
2023-08-23T20:36:10.996Z,62.52
2023-08-23T20:38:37.801Z,63.60
2023-08-23T20:41:08.190Z,62.45
2023-08-23T20:43:34.728Z,62.19
2023-08-23T20:46:02.796Z,64.51
2023-08-23T20:48:29.792Z,66.77
2023-08-23T20:50:56.262Z,66.61
2023-08-23T20:53:22.701Z,67.27
2023-08-23T20:55:51.255Z,67.66
2023-08-23T20:58:18.768Z,67.85
2023-08-23T21:00:48.763Z,69.18
2023-08-23T21:03:15.247Z,69.10
2023-08-23T21:05:43.864Z,69.60
2023-08-23T21:08:10.311Z,71.04
2023-08-23T21:10:42.900Z,70.79
2023-08-23T21:13:11.906Z,69.65
2023-08-23T21:15:48.469Z,69.44
2023-08-23T21:18:16.004Z,68.63
2023-08-23T21:20:42.879Z,67.45
2023-08-23T21:23:11.610Z,68.43
2023-08-23T21:25:38.016Z,68.67
2023-08-23T21:28:04.693Z,70.22
2023-08-23T21:30:31.116Z,73.04
2023-08-23T21:32:58.017Z,75.10
2023-08-23T21:35:24.825Z,75.87
2023-08-23T21:37:51.391Z,78.57
2023-08-23T21:40:18.175Z,77.46
2023-08-23T21:42:44.636Z,74.82
2023-08-23T21:45:11.366Z,73.34
2023-08-23T21:47:37.923Z,75.58
2023-08-23T21:50:04.852Z,74.73
2023-08-23T21:52:31.272Z,76.17
2023-08-23T21:54:57.588Z,78.09
2023-08-23T21:57:24.057Z,76.90
2023-08-23T21:59:50.504Z,76.47
2023-08-23T22:02:16.916Z,74.42
2023-08-23T22:04:43.342Z,75.30
2023-08-23T22:07:10.240Z,75.86
2023-08-23T22:09:37.171Z,75.63
2023-08-23T22:12:03.774Z,77.68
2023-08-23T22:14:30.222Z,80.43
2023-08-23T22:16:56.850Z,82.07
2023-08-23T22:19:23.602Z,81.85
2023-08-23T22:21:49.982Z,83.01
2023-08-23T22:24:16.507Z,83.60
2023-08-23T22:26:42.891Z,82.50
2023-08-23T22:29:09.417Z,83.25
2023-08-23T22:31:35.834Z,84.17
2023-08-23T22:34:02.353Z,84.30
2023-08-23T22:36:28.742Z,84.48
2023-08-23T22:38:55.109Z,83.35
2023-08-23T22:41:21.610Z,83.54
2023-08-23T22:43:47.983Z,82.67
2023-08-23T22:46:25.926Z,81.41
2023-08-23T22:48:58.042Z,82.80
2023-08-23T22:51:24.828Z,82.41
2023-08-23T22:53:52.100Z,83.28
2023-08-23T22:56:18.569Z,84.87
2023-08-23T22:58:45.651Z,85.36
2023-08-23T23:01:12.163Z,85.75
2023-08-23T23:03:38.994Z,86.65
2023-08-23T23:06:08.986Z,86.32
2023-08-23T23:08:35.862Z,87.77
2023-08-23T23:11:04.870Z,86.39
2023-08-23T23:13:32.052Z,87.78
2023-08-23T23:16:07.337Z,88.61
2023-08-23T23:18:37.071Z,89.24
2023-08-23T23:21:05.042Z,89.38
2023-08-23T23:23:31.383Z,89.26
2023-08-23T23:25:57.758Z,89.36
2023-08-23T23:28:24.152Z,88.33
2023-08-23T23:30:50.534Z,88.17
2023-08-23T23:33:16.969Z,88.44
2023-08-23T23:35:44.287Z,88.52
2023-08-23T23:38:10.827Z,88.98
2023-08-23T23:40:40.572Z,89.69
2023-08-23T23:43:07.146Z,90.32
2023-08-23T23:45:35.337Z,89.92
2023-08-23T23:48:02.664Z,90.92
2023-08-23T23:50:29.751Z,90.89
2023-08-23T23:52:56.129Z,92.12
2023-08-23T23:55:22.647Z,92.49
2023-08-23T23:57:49.229Z,94.29
